sensor_id;sensor_type;location;lat;lon;timestamp;temperature;humidity
34927;DHT22;21132;48.308;14.274;2022-08-19T00:02:08;24.00;54.30
34927;DHT22;21132;48.308;14.274;2022-08-19T00:04:35;23.90;54.50
34927;DHT22;21132;48.308;14.274;2022-08-19T00:07:02;24.00;54.60
34927;DHT22;21132;48.308;14.274;2022-08-19T00:09:29;23.90;54.40
34927;DHT22;21132;48.308;14.274;2022-08-19T00:11:55;23.90;54.50
34927;DHT22;21132;48.308;14.274;2022-08-19T00:14:23;23.90;54.50
34927;DHT22;21132;48.308;14.274;2022-08-19T00:16:50;23.80;54.70
34927;DHT22;21132;48.308;14.274;2022-08-19T00:19:20;23.80;54.90
34927;DHT22;21132;48.308;14.274;2022-08-19T00:21:46;23.80;55.00
34927;DHT22;21132;48.308;14.274;2022-08-19T00:24:14;23.70;54.90
34927;DHT22;21132;48.308;14.274;2022-08-19T00:26:42;23.70;55.00
34927;DHT22;21132;48.308;14.274;2022-08-19T00:29:10;23.70;54.90
34927;DHT22;21132;48.308;14.274;2022-08-19T00:31:37;23.70;55.80
34927;DHT22;21132;48.308;14.274;2022-08-19T00:34:03;23.70;55.20
34927;DHT22;21132;48.308;14.274;2022-08-19T00:36:30;23.60;55.20
34927;DHT22;21132;48.308;14.274;2022-08-19T00:38:57;23.60;55.40
34927;DHT22;21132;48.308;14.274;2022-08-19T00:41:24;23.50;55.50
34927;DHT22;21132;48.308;14.274;2022-08-19T00:44:05;23.50;55.70
34927;DHT22;21132;48.308;14.274;2022-08-19T00:46:32;23.50;56.10
34927;DHT22;21132;48.308;14.274;2022-08-19T00:49:00;23.40;55.90
34927;DHT22;21132;48.308;14.274;2022-08-19T00:51:30;23.40;56.10
34927;DHT22;21132;48.308;14.274;2022-08-19T00:53:59;23.40;56.20
34927;DHT22;21132;48.308;14.274;2022-08-19T00:56:26;23.40;56.10
34927;DHT22;21132;48.308;14.274;2022-08-19T00:58:55;23.40;56.20
34927;DHT22;21132;48.308;14.274;2022-08-19T01:01:21;23.30;56.10
34927;DHT22;21132;48.308;14.274;2022-08-19T01:03:47;23.30;56.30
34927;DHT22;21132;48.308;14.274;2022-08-19T01:06:13;23.30;56.30
34927;DHT22;21132;48.308;14.274;2022-08-19T01:08:40;23.30;56.40
34927;DHT22;21132;48.308;14.274;2022-08-19T01:11:07;23.20;56.60
34927;DHT22;21132;48.308;14.274;2022-08-19T01:13:33;23.20;57.00
34927;DHT22;21132;48.308;14.274;2022-08-19T01:16:07;23.20;57.00
34927;DHT22;21132;48.308;14.274;2022-08-19T01:18:37;23.20;57.00
34927;DHT22;21132;48.308;14.274;2022-08-19T01:21:10;23.20;57.00
34927;DHT22;21132;48.308;14.274;2022-08-19T01:23:36;23.20;57.00
34927;DHT22;21132;48.308;14.274;2022-08-19T01:26:21;23.10;57.10
34927;DHT22;21132;48.308;14.274;2022-08-19T01:28:49;23.10;57.20
34927;DHT22;21132;48.308;14.274;2022-08-19T01:31:19;23.10;57.70
34927;DHT22;21132;48.308;14.274;2022-08-19T01:33:48;23.10;57.30
34927;DHT22;21132;48.308;14.274;2022-08-19T01:36:22;23.10;57.40
34927;DHT22;21132;48.308;14.274;2022-08-19T01:38:48;23.10;57.40
34927;DHT22;21132;48.308;14.274;2022-08-19T01:41:17;23.00;57.70
34927;DHT22;21132;48.308;14.274;2022-08-19T01:43:43;23.00;58.00
34927;DHT22;21132;48.308;14.274;2022-08-19T01:46:09;23.00;57.80
34927;DHT22;21132;48.308;14.274;2022-08-19T01:48:38;23.00;57.60
34927;DHT22;21132;48.308;14.274;2022-08-19T01:51:05;23.00;57.60
34927;DHT22;21132;48.308;14.274;2022-08-19T01:53:31;23.00;57.50
34927;DHT22;21132;48.308;14.274;2022-08-19T01:55:57;23.00;57.60
34927;DHT22;21132;48.308;14.274;2022-08-19T01:58:26;23.00;57.80
34927;DHT22;21132;48.308;14.274;2022-08-19T02:00:54;23.00;58.10
34927;DHT22;21132;48.308;14.274;2022-08-19T02:03:20;22.90;58.00
34927;DHT22;21132;48.308;14.274;2022-08-19T02:05:46;23.00;57.90
34927;DHT22;21132;48.308;14.274;2022-08-19T02:08:12;23.00;57.90
34927;DHT22;21132;48.308;14.274;2022-08-19T02:10:40;22.90;57.70
34927;DHT22;21132;48.308;14.274;2022-08-19T02:13:06;22.90;57.60
34927;DHT22;21132;48.308;14.274;2022-08-19T02:15:32;22.90;57.70
34927;DHT22;21132;48.308;14.274;2022-08-19T02:17:58;22.90;57.70
34927;DHT22;21132;48.308;14.274;2022-08-19T02:20:24;22.90;57.70
34927;DHT22;21132;48.308;14.274;2022-08-19T02:22:50;22.90;57.90
34927;DHT22;21132;48.308;14.274;2022-08-19T02:25:16;22.80;57.90
34927;DHT22;21132;48.308;14.274;2022-08-19T02:27:42;22.80;57.90
34927;DHT22;21132;48.308;14.274;2022-08-19T02:30:12;22.80;58.30
34927;DHT22;21132;48.308;14.274;2022-08-19T02:32:38;22.90;58.50
34927;DHT22;21132;48.308;14.274;2022-08-19T02:35:05;22.80;58.90
34927;DHT22;21132;48.308;14.274;2022-08-19T02:37:31;22.90;59.00
34927;DHT22;21132;48.308;14.274;2022-08-19T02:40:15;22.90;59.00
34927;DHT22;21132;48.308;14.274;2022-08-19T02:42:43;22.90;58.80
34927;DHT22;21132;48.308;14.274;2022-08-19T02:45:09;22.90;58.90
34927;DHT22;21132;48.308;14.274;2022-08-19T02:47:35;22.90;58.70
34927;DHT22;21132;48.308;14.274;2022-08-19T02:50:03;23.00;58.90
34927;DHT22;21132;48.308;14.274;2022-08-19T02:52:30;23.00;58.80
34927;DHT22;21132;48.308;14.274;2022-08-19T02:54:56;23.00;58.70
34927;DHT22;21132;48.308;14.274;2022-08-19T02:57:23;23.00;58.50
34927;DHT22;21132;48.308;14.274;2022-08-19T02:59:49;23.00;58.90
34927;DHT22;21132;48.308;14.274;2022-08-19T03:02:15;23.00;59.10
34927;DHT22;21132;48.308;14.274;2022-08-19T03:04:41;23.00;59.10
34927;DHT22;21132;48.308;14.274;2022-08-19T03:07:08;23.00;59.10
34927;DHT22;21132;48.308;14.274;2022-08-19T03:09:36;23.00;58.80
34927;DHT22;21132;48.308;14.274;2022-08-19T03:12:04;23.00;58.80
34927;DHT22;21132;48.308;14.274;2022-08-19T03:14:33;23.00;58.90
34927;DHT22;21132;48.308;14.274;2022-08-19T03:16:59;23.00;59.10
34927;DHT22;21132;48.308;14.274;2022-08-19T03:19:26;23.00;59.10
34927;DHT22;21132;48.308;14.274;2022-08-19T03:21:53;22.90;59.20
34927;DHT22;21132;48.308;14.274;2022-08-19T03:24:19;22.90;59.10
34927;DHT22;21132;48.308;14.274;2022-08-19T03:26:49;22.90;59.00
34927;DHT22;21132;48.308;14.274;2022-08-19T03:29:16;22.90;59.20
34927;DHT22;21132;48.308;14.274;2022-08-19T03:31:43;22.90;59.30
34927;DHT22;21132;48.308;14.274;2022-08-19T03:34:30;22.90;59.30
34927;DHT22;21132;48.308;14.274;2022-08-19T03:37:04;22.90;59.20
34927;DHT22;21132;48.308;14.274;2022-08-19T03:39:30;22.90;59.10
34927;DHT22;21132;48.308;14.274;2022-08-19T03:41:56;22.90;59.10
34927;DHT22;21132;48.308;14.274;2022-08-19T03:44:28;22.90;59.20
34927;DHT22;21132;48.308;14.274;2022-08-19T03:46:56;22.80;59.10
34927;DHT22;21132;48.308;14.274;2022-08-19T03:49:25;22.80;59.20
34927;DHT22;21132;48.308;14.274;2022-08-19T03:51:53;22.80;59.30
34927;DHT22;21132;48.308;14.274;2022-08-19T03:54:21;22.80;59.80
34927;DHT22;21132;48.308;14.274;2022-08-19T03:56:49;22.70;59.80
34927;DHT22;21132;48.308;14.274;2022-08-19T03:59:20;22.80;60.80
34927;DHT22;21132;48.308;14.274;2022-08-19T04:01:50;22.70;60.20
34927;DHT22;21132;48.308;14.274;2022-08-19T04:04:16;22.80;60.40
34927;DHT22;21132;48.308;14.274;2022-08-19T04:06:43;22.80;60.40
34927;DHT22;21132;48.308;14.274;2022-08-19T04:09:10;22.90;60.60
34927;DHT22;21132;48.308;14.274;2022-08-19T04:11:41;22.90;60.80
34927;DHT22;21132;48.308;14.274;2022-08-19T04:14:09;22.90;60.80
34927;DHT22;21132;48.308;14.274;2022-08-19T04:16:35;22.90;60.70
34927;DHT22;21132;48.308;14.274;2022-08-19T04:19:03;23.00;60.60
34927;DHT22;21132;48.308;14.274;2022-08-19T04:21:29;23.00;60.50
34927;DHT22;21132;48.308;14.274;2022-08-19T04:23:56;23.00;60.30
34927;DHT22;21132;48.308;14.274;2022-08-19T04:26:28;23.00;60.50
34927;DHT22;21132;48.308;14.274;2022-08-19T04:28:58;23.00;60.20
34927;DHT22;21132;48.308;14.274;2022-08-19T04:31:28;23.10;60.30
34927;DHT22;21132;48.308;14.274;2022-08-19T04:33:59;23.10;60.20
34927;DHT22;21132;48.308;14.274;2022-08-19T04:36:30;23.20;60.20
34927;DHT22;21132;48.308;14.274;2022-08-19T04:38:59;23.20;60.10
34927;DHT22;21132;48.308;14.274;2022-08-19T04:41:25;23.30;60.00
34927;DHT22;21132;48.308;14.274;2022-08-19T04:44:09;23.40;60.00
34927;DHT22;21132;48.308;14.274;2022-08-19T04:46:36;23.40;59.80
34927;DHT22;21132;48.308;14.274;2022-08-19T04:49:04;23.40;59.70
34927;DHT22;21132;48.308;14.274;2022-08-19T04:51:31;23.50;59.70
34927;DHT22;21132;48.308;14.274;2022-08-19T04:53:58;23.60;59.60
34927;DHT22;21132;48.308;14.274;2022-08-19T04:56:26;23.60;59.60
34927;DHT22;21132;48.308;14.274;2022-08-19T04:58:53;23.70;59.50
34927;DHT22;21132;48.308;14.274;2022-08-19T05:01:27;23.70;59.30
34927;DHT22;21132;48.308;14.274;2022-08-19T05:03:53;23.80;59.20
34927;DHT22;21132;48.308;14.274;2022-08-19T05:06:21;23.90;59.00
34927;DHT22;21132;48.308;14.274;2022-08-19T05:08:47;24.00;58.90
34927;DHT22;21132;48.308;14.274;2022-08-19T05:11:17;24.00;58.90
34927;DHT22;21132;48.308;14.274;2022-08-19T05:13:44;24.00;58.80
34927;DHT22;21132;48.308;14.274;2022-08-19T05:16:12;24.00;58.80
34927;DHT22;21132;48.308;14.274;2022-08-19T05:18:38;24.00;58.90
34927;DHT22;21132;48.308;14.274;2022-08-19T05:21:22;24.00;60.00
34927;DHT22;21132;48.308;14.274;2022-08-19T05:24:07;24.10;59.50
34927;DHT22;21132;48.308;14.274;2022-08-19T05:26:37;24.10;59.80
34927;DHT22;21132;48.308;14.274;2022-08-19T05:29:04;24.00;59.90
34927;DHT22;21132;48.308;14.274;2022-08-19T05:31:30;24.00;60.00
34927;DHT22;21132;48.308;14.274;2022-08-19T05:33:57;24.00;60.10
34927;DHT22;21132;48.308;14.274;2022-08-19T05:36:28;24.00;60.10
34927;DHT22;21132;48.308;14.274;2022-08-19T05:38:54;24.00;60.30
34927;DHT22;21132;48.308;14.274;2022-08-19T05:41:22;23.90;60.50
34927;DHT22;21132;48.308;14.274;2022-08-19T05:43:57;23.90;60.50
34927;DHT22;21132;48.308;14.274;2022-08-19T05:46:23;23.90;60.70
34927;DHT22;21132;48.308;14.274;2022-08-19T05:48:50;23.90;61.00
34927;DHT22;21132;48.308;14.274;2022-08-19T05:51:16;23.90;61.10
34927;DHT22;21132;48.308;14.274;2022-08-19T05:53:42;23.90;61.30
34927;DHT22;21132;48.308;14.274;2022-08-19T05:56:13;23.80;61.30
34927;DHT22;21132;48.308;14.274;2022-08-19T05:58:41;23.80;61.60
34927;DHT22;21132;48.308;14.274;2022-08-19T06:01:13;23.80;61.80
34927;DHT22;21132;48.308;14.274;2022-08-19T06:03:39;23.80;62.20
34927;DHT22;21132;48.308;14.274;2022-08-19T06:06:07;23.80;62.30
34927;DHT22;21132;48.308;14.274;2022-08-19T06:08:34;23.90;63.00
34927;DHT22;21132;48.308;14.274;2022-08-19T06:13:40;23.90;62.70
34927;DHT22;21132;48.308;14.274;2022-08-19T06:16:06;24.00;63.10
34927;DHT22;21132;48.308;14.274;2022-08-19T06:18:31;24.00;63.20
34927;DHT22;21132;48.308;14.274;2022-08-19T06:20:59;24.10;63.00
34927;DHT22;21132;48.308;14.274;2022-08-19T06:23:24;24.20;63.20
34927;DHT22;21132;48.308;14.274;2022-08-19T06:25:51;24.30;63.50
34927;DHT22;21132;48.308;14.274;2022-08-19T06:28:16;24.40;63.10
34927;DHT22;21132;48.308;14.274;2022-08-19T06:30:42;24.60;63.20
34927;DHT22;21132;48.308;14.274;2022-08-19T06:33:08;24.70;63.10
34927;DHT22;21132;48.308;14.274;2022-08-19T06:35:41;24.90;62.70
34927;DHT22;21132;48.308;14.274;2022-08-19T06:38:07;25.00;62.40
34927;DHT22;21132;48.308;14.274;2022-08-19T06:40:35;25.20;62.00
34927;DHT22;21132;48.308;14.274;2022-08-19T06:43:01;25.30;61.70
34927;DHT22;21132;48.308;14.274;2022-08-19T06:45:28;25.50;61.10
34927;DHT22;21132;48.308;14.274;2022-08-19T06:47:54;25.60;60.70
34927;DHT22;21132;48.308;14.274;2022-08-19T06:50:24;25.70;60.30
34927;DHT22;21132;48.308;14.274;2022-08-19T06:52:50;25.80;59.10
34927;DHT22;21132;48.308;14.274;2022-08-19T06:55:16;26.00;59.00
34927;DHT22;21132;48.308;14.274;2022-08-19T06:57:42;26.10;58.50
34927;DHT22;21132;48.308;14.274;2022-08-19T07:00:11;26.10;57.80
34927;DHT22;21132;48.308;14.274;2022-08-19T07:02:41;26.30;57.60
34927;DHT22;21132;48.308;14.274;2022-08-19T07:05:07;26.40;57.90
34927;DHT22;21132;48.308;14.274;2022-08-19T07:07:33;26.60;57.40
34927;DHT22;21132;48.308;14.274;2022-08-19T07:10:00;26.70;57.10
34927;DHT22;21132;48.308;14.274;2022-08-19T07:12:28;26.80;56.30
34927;DHT22;21132;48.308;14.274;2022-08-19T07:14:54;26.90;56.40
34927;DHT22;21132;48.308;14.274;2022-08-19T07:17:20;27.00;56.10
34927;DHT22;21132;48.308;14.274;2022-08-19T07:19:46;27.10;55.70
34927;DHT22;21132;48.308;14.274;2022-08-19T07:22:11;27.20;55.90
34927;DHT22;21132;48.308;14.274;2022-08-19T07:24:38;27.30;55.50
34927;DHT22;21132;48.308;14.274;2022-08-19T07:27:05;27.30;55.20
34927;DHT22;21132;48.308;14.274;2022-08-19T07:29:33;27.40;55.20
34927;DHT22;21132;48.308;14.274;2022-08-19T07:32:00;27.50;55.20
34927;DHT22;21132;48.308;14.274;2022-08-19T07:34:29;27.60;55.20
34927;DHT22;21132;48.308;14.274;2022-08-19T07:36:56;27.70;55.00
34927;DHT22;21132;48.308;14.274;2022-08-19T07:39:26;27.80;55.20
34927;DHT22;21132;48.308;14.274;2022-08-19T07:41:53;27.90;54.90
34927;DHT22;21132;48.308;14.274;2022-08-19T07:44:20;28.00;54.80
34927;DHT22;21132;48.308;14.274;2022-08-19T07:46:50;28.10;54.30
34927;DHT22;21132;48.308;14.274;2022-08-19T07:49:16;28.20;54.10
34927;DHT22;21132;48.308;14.274;2022-08-19T07:51:54;28.40;54.20
34927;DHT22;21132;48.308;14.274;2022-08-19T07:54:21;28.50;54.00
34927;DHT22;21132;48.308;14.274;2022-08-19T07:56:47;28.60;53.40
34927;DHT22;21132;48.308;14.274;2022-08-19T07:59:15;28.70;53.50
34927;DHT22;21132;48.308;14.274;2022-08-19T08:01:43;28.80;53.60
34927;DHT22;21132;48.308;14.274;2022-08-19T08:04:10;28.90;52.70
34927;DHT22;21132;48.308;14.274;2022-08-19T08:06:54;29.00;52.30
34927;DHT22;21132;48.308;14.274;2022-08-19T08:09:41;29.00;52.80
34927;DHT22;21132;48.308;14.274;2022-08-19T08:12:19;29.10;51.50
34927;DHT22;21132;48.308;14.274;2022-08-19T08:14:49;29.20;51.50
34927;DHT22;21132;48.308;14.274;2022-08-19T08:17:18;29.20;51.20
34927;DHT22;21132;48.308;14.274;2022-08-19T08:19:45;29.20;51.30
34927;DHT22;21132;48.308;14.274;2022-08-19T08:22:14;29.30;50.80
34927;DHT22;21132;48.308;14.274;2022-08-19T08:25:13;29.40;50.70
34927;DHT22;21132;48.308;14.274;2022-08-19T08:27:41;29.40;50.70
34927;DHT22;21132;48.308;14.274;2022-08-19T08:30:09;29.50;50.40
34927;DHT22;21132;48.308;14.274;2022-08-19T08:32:37;29.50;50.50
34927;DHT22;21132;48.308;14.274;2022-08-19T08:35:04;29.50;49.60
34927;DHT22;21132;48.308;14.274;2022-08-19T08:37:30;29.60;50.00
34927;DHT22;21132;48.308;14.274;2022-08-19T08:39:56;29.60;50.40
34927;DHT22;21132;48.308;14.274;2022-08-19T08:42:29;29.70;50.20
34927;DHT22;21132;48.308;14.274;2022-08-19T08:45:03;29.80;50.40
34927;DHT22;21132;48.308;14.274;2022-08-19T08:47:34;30.00;50.00
34927;DHT22;21132;48.308;14.274;2022-08-19T08:50:12;30.20;49.60
34927;DHT22;21132;48.308;14.274;2022-08-19T08:52:45;30.30;49.30
34927;DHT22;21132;48.308;14.274;2022-08-19T08:55:16;30.40;49.10
34927;DHT22;21132;48.308;14.274;2022-08-19T09:02:46;30.40;47.80
34927;DHT22;21132;48.308;14.274;2022-08-19T09:05:12;30.30;47.30
34927;DHT22;21132;48.308;14.274;2022-08-19T09:07:45;30.20;47.50
34927;DHT22;21132;48.308;14.274;2022-08-19T09:10:44;30.00;47.90
34927;DHT22;21132;48.308;14.274;2022-08-19T09:13:15;29.80;48.40
34927;DHT22;21132;48.308;14.274;2022-08-19T09:15:58;29.80;48.20
34927;DHT22;21132;48.308;14.274;2022-08-19T09:18:40;29.60;48.40
34927;DHT22;21132;48.308;14.274;2022-08-19T09:21:06;29.50;48.60
34927;DHT22;21132;48.308;14.274;2022-08-19T09:23:35;29.50;48.60
34927;DHT22;21132;48.308;14.274;2022-08-19T09:26:07;29.40;48.50
34927;DHT22;21132;48.308;14.274;2022-08-19T09:28:34;29.30;48.80
34927;DHT22;21132;48.308;14.274;2022-08-19T09:31:00;29.30;48.60
34927;DHT22;21132;48.308;14.274;2022-08-19T09:33:25;29.20;48.60
34927;DHT22;21132;48.308;14.274;2022-08-19T09:36:06;29.20;48.80
34927;DHT22;21132;48.308;14.274;2022-08-19T09:38:33;29.20;48.80
34927;DHT22;21132;48.308;14.274;2022-08-19T09:41:07;29.20;48.90
34927;DHT22;21132;48.308;14.274;2022-08-19T09:43:34;29.20;48.80
34927;DHT22;21132;48.308;14.274;2022-08-19T09:46:03;29.20;48.80
34927;DHT22;21132;48.308;14.274;2022-08-19T09:48:31;29.20;48.90
34927;DHT22;21132;48.308;14.274;2022-08-19T09:53:34;29.30;48.80
34927;DHT22;21132;48.308;14.274;2022-08-19T09:56:01;29.40;48.60
34927;DHT22;21132;48.308;14.274;2022-08-19T09:58:27;29.50;48.30
34927;DHT22;21132;48.308;14.274;2022-08-19T10:00:59;29.50;48.40
34927;DHT22;21132;48.308;14.274;2022-08-19T10:03:26;29.50;48.00
34927;DHT22;21132;48.308;14.274;2022-08-19T10:05:54;29.60;47.90
34927;DHT22;21132;48.308;14.274;2022-08-19T10:08:23;29.60;47.80
34927;DHT22;21132;48.308;14.274;2022-08-19T10:10:49;29.60;47.80
34927;DHT22;21132;48.308;14.274;2022-08-19T10:13:18;29.70;47.60
34927;DHT22;21132;48.308;14.274;2022-08-19T10:15:47;29.70;47.70
34927;DHT22;21132;48.308;14.274;2022-08-19T10:18:16;29.80;47.40
34927;DHT22;21132;48.308;14.274;2022-08-19T10:20:50;29.80;47.30
34927;DHT22;21132;48.308;14.274;2022-08-19T10:23:17;29.70;47.50
34927;DHT22;21132;48.308;14.274;2022-08-19T10:25:43;29.70;47.30
34927;DHT22;21132;48.308;14.274;2022-08-19T10:28:12;29.70;47.30
34927;DHT22;21132;48.308;14.274;2022-08-19T10:30:39;29.70;47.50
34927;DHT22;21132;48.308;14.274;2022-08-19T10:33:05;29.80;47.60
34927;DHT22;21132;48.308;14.274;2022-08-19T10:35:31;29.90;47.40
34927;DHT22;21132;48.308;14.274;2022-08-19T10:37:57;29.90;46.40
34927;DHT22;21132;48.308;14.274;2022-08-19T10:40:28;29.90;46.00
34927;DHT22;21132;48.308;14.274;2022-08-19T10:42:55;29.90;46.00
34927;DHT22;21132;48.308;14.274;2022-08-19T10:45:22;30.00;46.30
34927;DHT22;21132;48.308;14.274;2022-08-19T10:47:50;29.90;46.00
34927;DHT22;21132;48.308;14.274;2022-08-19T10:50:16;29.90;46.00
34927;DHT22;21132;48.308;14.274;2022-08-19T10:53:06;29.90;45.90
34927;DHT22;21132;48.308;14.274;2022-08-19T10:55:34;29.90;46.00
34927;DHT22;21132;48.308;14.274;2022-08-19T10:58:20;29.80;46.30
34927;DHT22;21132;48.308;14.274;2022-08-19T11:00:58;29.90;46.40
34927;DHT22;21132;48.308;14.274;2022-08-19T11:03:25;29.90;46.40
34927;DHT22;21132;48.308;14.274;2022-08-19T11:06:08;29.90;46.10
34927;DHT22;21132;48.308;14.274;2022-08-19T11:08:35;30.00;46.00
34927;DHT22;21132;48.308;14.274;2022-08-19T11:11:03;30.10;46.20
34927;DHT22;21132;48.308;14.274;2022-08-19T11:13:32;30.20;45.90
34927;DHT22;21132;48.308;14.274;2022-08-19T11:16:20;30.30;45.80
34927;DHT22;21132;48.308;14.274;2022-08-19T11:18:48;30.40;45.40
34927;DHT22;21132;48.308;14.274;2022-08-19T11:21:23;30.60;45.90
34927;DHT22;21132;48.308;14.274;2022-08-19T11:23:51;30.80;45.80
34927;DHT22;21132;48.308;14.274;2022-08-19T11:26:19;30.90;44.60
34927;DHT22;21132;48.308;14.274;2022-08-19T11:28:45;31.10;44.40
34927;DHT22;21132;48.308;14.274;2022-08-19T11:31:17;31.20;43.80
34927;DHT22;21132;48.308;14.274;2022-08-19T11:33:44;31.30;43.60
34927;DHT22;21132;48.308;14.274;2022-08-19T11:36:10;31.40;43.10
34927;DHT22;21132;48.308;14.274;2022-08-19T11:38:36;31.40;43.00
34927;DHT22;21132;48.308;14.274;2022-08-19T11:41:06;31.30;43.00
34927;DHT22;21132;48.308;14.274;2022-08-19T11:43:33;31.30;43.50
34927;DHT22;21132;48.308;14.274;2022-08-19T11:45:59;31.30;43.10
34927;DHT22;21132;48.308;14.274;2022-08-19T11:48:28;31.30;43.10
34927;DHT22;21132;48.308;14.274;2022-08-19T11:50:54;31.40;43.20
34927;DHT22;21132;48.308;14.274;2022-08-19T11:53:23;31.50;42.80
34927;DHT22;21132;48.308;14.274;2022-08-19T11:55:50;31.70;42.70
34927;DHT22;21132;48.308;14.274;2022-08-19T11:58:21;31.90;42.50
34927;DHT22;21132;48.308;14.274;2022-08-19T12:00:47;32.10;42.50
34927;DHT22;21132;48.308;14.274;2022-08-19T12:03:13;32.30;41.70
34927;DHT22;21132;48.308;14.274;2022-08-19T12:05:40;32.40;40.90
34927;DHT22;21132;48.308;14.274;2022-08-19T12:08:07;32.60;40.60
34927;DHT22;21132;48.308;14.274;2022-08-19T12:10:34;32.60;40.20
34927;DHT22;21132;48.308;14.274;2022-08-19T12:13:00;32.60;39.80
34927;DHT22;21132;48.308;14.274;2022-08-19T12:15:27;32.70;39.90
34927;DHT22;21132;48.308;14.274;2022-08-19T12:17:55;32.70;39.20
34927;DHT22;21132;48.308;14.274;2022-08-19T12:20:23;32.80;39.10
34927;DHT22;21132;48.308;14.274;2022-08-19T12:22:49;32.70;39.00
34927;DHT22;21132;48.308;14.274;2022-08-19T12:25:16;32.70;38.60
34927;DHT22;21132;48.308;14.274;2022-08-19T12:27:42;32.70;39.00
34927;DHT22;21132;48.308;14.274;2022-08-19T12:30:10;32.70;38.30
34927;DHT22;21132;48.308;14.274;2022-08-19T12:32:37;32.80;38.60
34927;DHT22;21132;48.308;14.274;2022-08-19T12:35:03;32.80;39.10
34927;DHT22;21132;48.308;14.274;2022-08-19T12:37:29;32.80;39.00
34927;DHT22;21132;48.308;14.274;2022-08-19T12:39:56;32.80;39.00
34927;DHT22;21132;48.308;14.274;2022-08-19T12:42:23;32.80;38.40
34927;DHT22;21132;48.308;14.274;2022-08-19T12:44:50;32.80;38.80
34927;DHT22;21132;48.308;14.274;2022-08-19T12:47:18;32.80;38.40
34927;DHT22;21132;48.308;14.274;2022-08-19T12:49:43;32.80;38.30
34927;DHT22;21132;48.308;14.274;2022-08-19T12:52:10;32.80;38.10
34927;DHT22;21132;48.308;14.274;2022-08-19T12:54:37;32.80;38.40
34927;DHT22;21132;48.308;14.274;2022-08-19T12:57:07;32.80;38.20
34927;DHT22;21132;48.308;14.274;2022-08-19T12:59:35;32.90;37.90
34927;DHT22;21132;48.308;14.274;2022-08-19T13:02:02;32.80;37.70
34927;DHT22;21132;48.308;14.274;2022-08-19T13:04:30;32.80;37.80
34927;DHT22;21132;48.308;14.274;2022-08-19T13:06:56;32.80;37.80
34927;DHT22;21132;48.308;14.274;2022-08-19T13:09:24;32.80;37.30
34927;DHT22;21132;48.308;14.274;2022-08-19T13:11:49;32.90;37.50
34927;DHT22;21132;48.308;14.274;2022-08-19T13:14:15;32.90;37.70
34927;DHT22;21132;48.308;14.274;2022-08-19T13:16:41;33.10;37.00
34927;DHT22;21132;48.308;14.274;2022-08-19T13:19:08;33.10;37.00
34927;DHT22;21132;48.308;14.274;2022-08-19T13:21:34;33.20;36.80
34927;DHT22;21132;48.308;14.274;2022-08-19T13:24:01;33.30;37.00
34927;DHT22;21132;48.308;14.274;2022-08-19T13:26:26;33.30;36.80
34927;DHT22;21132;48.308;14.274;2022-08-19T13:28:52;33.30;36.50
34927;DHT22;21132;48.308;14.274;2022-08-19T13:31:40;33.30;36.60
34927;DHT22;21132;48.308;14.274;2022-08-19T13:34:33;33.40;36.50
34927;DHT22;21132;48.308;14.274;2022-08-19T13:37:00;33.40;36.30
34927;DHT22;21132;48.308;14.274;2022-08-19T13:39:30;33.50;36.20
34927;DHT22;21132;48.308;14.274;2022-08-19T13:41:57;33.50;36.10
34927;DHT22;21132;48.308;14.274;2022-08-19T13:44:27;33.50;35.80
34927;DHT22;21132;48.308;14.274;2022-08-19T13:47:05;33.50;36.10
34927;DHT22;21132;48.308;14.274;2022-08-19T13:49:32;33.60;36.40
34927;DHT22;21132;48.308;14.274;2022-08-19T13:51:58;33.70;36.10
34927;DHT22;21132;48.308;14.274;2022-08-19T13:54:24;33.80;36.10
34927;DHT22;21132;48.308;14.274;2022-08-19T13:56:50;33.80;35.80
34927;DHT22;21132;48.308;14.274;2022-08-19T13:59:16;34.00;35.40
34927;DHT22;21132;48.308;14.274;2022-08-19T14:01:42;34.00;35.20
34927;DHT22;21132;48.308;14.274;2022-08-19T14:04:08;34.10;34.90
34927;DHT22;21132;48.308;14.274;2022-08-19T14:06:34;34.30;34.60
34927;DHT22;21132;48.308;14.274;2022-08-19T14:09:00;34.30;34.70
34927;DHT22;21132;48.308;14.274;2022-08-19T14:11:28;34.40;34.10
34927;DHT22;21132;48.308;14.274;2022-08-19T14:13:54;34.50;34.80
34927;DHT22;21132;48.308;14.274;2022-08-19T14:16:20;34.70;34.20
34927;DHT22;21132;48.308;14.274;2022-08-19T14:18:47;34.90;34.10
34927;DHT22;21132;48.308;14.274;2022-08-19T14:21:21;35.20;33.70
34927;DHT22;21132;48.308;14.274;2022-08-19T14:23:48;35.50;33.40
34927;DHT22;21132;48.308;14.274;2022-08-19T14:26:16;35.80;32.80
34927;DHT22;21132;48.308;14.274;2022-08-19T14:28:43;36.20;32.40
34927;DHT22;21132;48.308;14.274;2022-08-19T14:31:11;36.60;32.10
34927;DHT22;21132;48.308;14.274;2022-08-19T14:33:37;37.00;30.60
34927;DHT22;21132;48.308;14.274;2022-08-19T14:36:04;37.30;30.40
34927;DHT22;21132;48.308;14.274;2022-08-19T14:38:30;37.60;30.20
34927;DHT22;21132;48.308;14.274;2022-08-19T14:41:15;37.80;29.70
34927;DHT22;21132;48.308;14.274;2022-08-19T14:43:43;38.00;29.70
34927;DHT22;21132;48.308;14.274;2022-08-19T14:46:12;38.00;29.00
34927;DHT22;21132;48.308;14.274;2022-08-19T14:48:38;37.90;28.60
34927;DHT22;21132;48.308;14.274;2022-08-19T14:51:05;37.70;28.90
34927;DHT22;21132;48.308;14.274;2022-08-19T14:53:31;37.40;29.10
34927;DHT22;21132;48.308;14.274;2022-08-19T14:55:59;37.10;29.40
34927;DHT22;21132;48.308;14.274;2022-08-19T14:58:25;36.90;30.00
34927;DHT22;21132;48.308;14.274;2022-08-19T15:00:51;36.90;30.00
34927;DHT22;21132;48.308;14.274;2022-08-19T15:03:17;36.90;29.90
34927;DHT22;21132;48.308;14.274;2022-08-19T15:05:43;36.90;29.50
34927;DHT22;21132;48.308;14.274;2022-08-19T15:08:08;36.70;29.50
34927;DHT22;21132;48.308;14.274;2022-08-19T15:10:37;36.50;29.50
34927;DHT22;21132;48.308;14.274;2022-08-19T15:13:03;36.10;29.50
34927;DHT22;21132;48.308;14.274;2022-08-19T15:15:29;35.80;30.00
34927;DHT22;21132;48.308;14.274;2022-08-19T15:17:55;35.40;30.40
34927;DHT22;21132;48.308;14.274;2022-08-19T15:20:28;35.10;31.20
34927;DHT22;21132;48.308;14.274;2022-08-19T15:22:54;34.60;31.60
34927;DHT22;21132;48.308;14.274;2022-08-19T15:25:19;34.30;32.20
34927;DHT22;21132;48.308;14.274;2022-08-19T15:27:47;33.90;32.80
34927;DHT22;21132;48.308;14.274;2022-08-19T15:30:25;33.50;33.30
34927;DHT22;21132;48.308;14.274;2022-08-19T15:32:51;33.20;33.90
34927;DHT22;21132;48.308;14.274;2022-08-19T15:35:21;32.70;31.20